createdAt,value
2022-07-25T00:01:23.864Z,22.40
2022-07-25T00:03:26.681Z,22.40
2022-07-25T00:05:37.678Z,22.40
2022-07-25T00:07:40.753Z,22.40
2022-07-25T00:09:43.508Z,22.40
2022-07-25T00:11:48.872Z,22.40
2022-07-25T00:13:51.627Z,22.40
2022-07-25T00:15:54.423Z,22.40
2022-07-25T00:17:57.216Z,22.40
2022-07-25T00:20:00.305Z,22.40
2022-07-25T00:22:04.440Z,22.40
2022-07-25T00:24:08.019Z,22.30
2022-07-25T00:26:11.153Z,22.30
2022-07-25T00:28:13.971Z,22.30
2022-07-25T00:30:16.777Z,22.30
2022-07-25T00:32:19.561Z,22.30
2022-07-25T00:34:22.318Z,22.30
2022-07-25T00:36:25.060Z,22.20
2022-07-25T00:38:29.196Z,22.20
2022-07-25T00:40:31.937Z,22.20
2022-07-25T00:42:34.718Z,22.20
2022-07-25T00:44:37.470Z,22.20
2022-07-25T00:46:40.252Z,22.20
2022-07-25T00:48:44.350Z,22.20
2022-07-25T00:50:47.139Z,22.20
2022-07-25T00:52:49.878Z,22.20
2022-07-25T00:54:53.963Z,22.20
2022-07-25T00:56:56.694Z,22.20
2022-07-25T00:58:59.428Z,22.20
2022-07-25T01:01:02.300Z,22.20
2022-07-25T01:03:05.111Z,22.30
2022-07-25T01:05:09.045Z,22.30
2022-07-25T01:07:13.679Z,22.30
2022-07-25T01:09:16.455Z,22.30
2022-07-25T01:11:20.540Z,22.20
2022-07-25T01:13:23.262Z,22.20
2022-07-25T01:15:26.127Z,22.30
2022-07-25T01:17:28.841Z,22.30
2022-07-25T01:19:31.586Z,22.20
2022-07-25T01:21:38.795Z,22.20
2022-07-25T01:23:41.538Z,22.20
2022-07-25T01:25:44.311Z,22.20
2022-07-25T01:27:49.971Z,22.20
2022-07-25T01:29:55.640Z,22.20
2022-07-25T01:31:58.374Z,22.10
2022-07-25T01:34:01.434Z,22.20
2022-07-25T01:36:04.349Z,22.10
2022-07-25T01:38:08.423Z,22.10
2022-07-25T01:40:11.680Z,22.10
2022-07-25T01:42:14.423Z,22.10
2022-07-25T01:44:17.617Z,22.10
2022-07-25T01:46:20.400Z,22.00
2022-07-25T01:48:23.266Z,22.00
2022-07-25T01:50:26.265Z,22.00
2022-07-25T01:52:28.993Z,21.90
2022-07-25T01:54:33.164Z,22.00
2022-07-25T01:56:35.890Z,21.90
2022-07-25T01:58:38.763Z,21.90
2022-07-25T02:00:41.616Z,21.80
2022-07-25T02:02:45.075Z,21.90
2022-07-25T02:04:47.880Z,21.80
2022-07-25T02:06:52.207Z,21.80
2022-07-25T02:08:54.958Z,21.80
2022-07-25T02:10:59.298Z,21.80
2022-07-25T02:13:02.174Z,21.80
2022-07-25T02:15:05.573Z,21.80
2022-07-25T02:17:08.412Z,21.80
2022-07-25T02:19:11.298Z,21.80
2022-07-25T02:21:14.819Z,21.80
2022-07-25T02:23:17.590Z,21.80
2022-07-25T02:25:20.485Z,21.80
2022-07-25T02:27:24.567Z,21.80
2022-07-25T02:29:27.317Z,21.90
2022-07-25T02:31:30.104Z,21.90
2022-07-25T02:33:32.842Z,21.90
2022-07-25T02:35:35.590Z,21.90
2022-07-25T02:37:38.323Z,21.90
2022-07-25T02:39:41.073Z,21.90
2022-07-25T02:41:43.985Z,21.90
2022-07-25T02:43:48.062Z,21.90
2022-07-25T02:45:50.851Z,21.80
2022-07-25T02:47:53.682Z,21.80
2022-07-25T02:49:56.451Z,21.80
2022-07-25T02:51:59.190Z,21.80
2022-07-25T02:54:02.114Z,21.70
2022-07-25T02:56:05.251Z,21.70
2022-07-25T02:58:08.672Z,21.70
2022-07-25T03:00:14.366Z,21.70
2022-07-25T03:02:17.102Z,21.70
2022-07-25T03:04:19.961Z,21.60
2022-07-25T03:06:22.797Z,21.60
2022-07-25T03:08:25.539Z,21.60
2022-07-25T03:10:28.403Z,21.60
2022-07-25T03:12:32.831Z,21.50
2022-07-25T03:14:35.569Z,21.50
2022-07-25T03:16:39.703Z,21.40
2022-07-25T03:18:42.467Z,21.40
2022-07-25T03:20:45.221Z,21.40
2022-07-25T03:22:47.947Z,21.40
2022-07-25T03:24:53.347Z,21.40
2022-07-25T03:26:56.077Z,21.30
2022-07-25T03:28:58.802Z,21.30
2022-07-25T03:31:01.539Z,21.30
2022-07-25T03:33:05.592Z,21.30
2022-07-25T03:35:09.072Z,21.30
2022-07-25T03:37:11.794Z,21.20
2022-07-25T03:39:14.540Z,21.20
2022-07-25T03:41:17.284Z,21.20
2022-07-25T03:43:20.014Z,21.00
2022-07-25T03:45:22.803Z,20.90
2022-07-25T03:47:25.523Z,20.70
2022-07-25T03:49:29.579Z,20.70
2022-07-25T03:51:32.403Z,20.70
2022-07-25T03:53:55.111Z,20.80
2022-07-25T03:55:57.851Z,20.80
2022-07-25T03:58:00.574Z,20.80
2022-07-25T04:00:03.487Z,20.80
2022-07-25T04:02:06.303Z,20.70
2022-07-25T04:04:10.031Z,20.70
2022-07-25T04:06:14.221Z,20.70
2022-07-25T04:08:16.946Z,20.70
2022-07-25T04:10:19.688Z,20.70
2022-07-25T04:12:22.406Z,20.70
2022-07-25T04:14:25.124Z,20.70
2022-07-25T04:16:28.133Z,20.70
2022-07-25T04:18:30.940Z,20.80
2022-07-25T04:20:37.462Z,20.80
2022-07-25T04:22:46.318Z,20.80
2022-07-25T04:24:49.626Z,20.80
2022-07-25T04:26:52.406Z,20.80
2022-07-25T04:28:56.943Z,20.90
2022-07-25T04:30:59.709Z,20.90
2022-07-25T04:33:02.440Z,21.00
2022-07-25T04:35:05.790Z,21.10
2022-07-25T04:37:08.546Z,21.10
2022-07-25T04:39:12.606Z,21.10
2022-07-25T04:41:15.342Z,21.20
2022-07-25T04:43:18.062Z,21.30
2022-07-25T04:45:20.841Z,21.30
2022-07-25T04:47:23.595Z,21.40
2022-07-25T04:49:26.323Z,21.40
2022-07-25T04:51:29.306Z,21.50
2022-07-25T04:53:32.095Z,21.60
2022-07-25T04:55:36.310Z,21.60
2022-07-25T04:57:39.032Z,21.70
2022-07-25T04:59:41.756Z,21.80
2022-07-25T05:01:44.554Z,21.90
2022-07-25T05:03:50.182Z,21.90
2022-07-25T05:05:53.548Z,22.00
2022-07-25T05:07:57.323Z,22.10
2022-07-25T05:10:00.236Z,22.20
2022-07-25T05:12:04.665Z,22.20
2022-07-25T05:14:07.775Z,22.30
2022-07-25T05:16:10.833Z,22.40
2022-07-25T05:18:13.584Z,22.50
2022-07-25T05:20:16.350Z,22.60
2022-07-25T05:22:19.424Z,22.70
2022-07-25T05:24:22.962Z,22.80
2022-07-25T05:26:25.696Z,22.90
2022-07-25T05:28:29.760Z,23.00
2022-07-25T05:30:35.366Z,23.10
2022-07-25T05:32:42.299Z,23.20
2022-07-25T05:34:45.590Z,23.30
2022-07-25T05:36:48.366Z,23.30
2022-07-25T05:38:51.161Z,23.40
2022-07-25T05:40:53.946Z,23.60
2022-07-25T05:43:00.946Z,23.70
2022-07-25T05:45:08.195Z,23.80
2022-07-25T05:47:11.844Z,23.90
2022-07-25T05:49:15.924Z,24.00
2022-07-25T05:51:18.770Z,24.10
2022-07-25T05:53:21.846Z,24.20
2022-07-25T05:55:24.571Z,24.30
2022-07-25T05:57:27.552Z,24.30
2022-07-25T05:59:30.266Z,24.50
2022-07-25T06:01:34.423Z,24.50
2022-07-25T06:03:37.171Z,24.70
2022-07-25T06:05:39.921Z,24.80
2022-07-25T06:07:42.665Z,24.90
2022-07-25T06:09:45.420Z,25.10
2022-07-25T06:11:54.476Z,25.40
2022-07-25T06:14:02.886Z,25.80
2022-07-25T06:16:06.471Z,26.10
2022-07-25T06:18:10.578Z,26.40
2022-07-25T06:20:13.412Z,26.60
2022-07-25T06:22:16.159Z,26.80
2022-07-25T06:24:18.894Z,27.00
2022-07-25T06:26:21.781Z,27.20
2022-07-25T06:28:24.501Z,27.30
2022-07-25T06:30:27.303Z,27.50
2022-07-25T06:32:30.209Z,27.70
2022-07-25T06:34:34.266Z,27.70
2022-07-25T06:36:36.986Z,27.60
2022-07-25T06:38:39.723Z,27.80
2022-07-25T06:40:42.448Z,27.80
2022-07-25T06:42:46.865Z,27.70
2022-07-25T06:44:49.606Z,27.60
2022-07-25T06:46:52.383Z,27.80
2022-07-25T06:48:55.204Z,27.90
2022-07-25T06:50:59.283Z,28.10
2022-07-25T06:53:02.070Z,28.30
2022-07-25T06:55:05.426Z,28.20
2022-07-25T06:57:08.949Z,28.00
2022-07-25T06:59:11.709Z,28.00
2022-07-25T07:01:14.506Z,28.10
2022-07-25T07:03:17.328Z,28.30
2022-07-25T07:05:20.208Z,28.40
2022-07-25T07:07:24.707Z,29.00
2022-07-25T07:09:27.456Z,29.30
2022-07-25T07:11:30.179Z,29.60
2022-07-25T07:13:32.956Z,29.70
2022-07-25T07:15:35.723Z,29.80
2022-07-25T07:17:38.451Z,29.70
2022-07-25T07:19:44.515Z,29.40
2022-07-25T07:21:47.381Z,29.30
2022-07-25T07:23:53.307Z,29.30
2022-07-25T07:25:56.690Z,29.20
2022-07-25T07:27:59.474Z,29.10
2022-07-25T07:30:02.196Z,29.20
2022-07-25T07:32:06.551Z,29.30
2022-07-25T07:34:09.357Z,29.40
2022-07-25T07:36:17.443Z,29.30
2022-07-25T07:38:20.191Z,29.50
2022-07-25T07:40:25.726Z,29.70
2022-07-25T07:42:28.514Z,29.70
2022-07-25T07:44:31.251Z,29.80
2022-07-25T07:46:34.126Z,29.80
2022-07-25T07:48:37.060Z,29.70
2022-07-25T07:50:40.204Z,29.80
2022-07-25T07:52:43.001Z,29.80
2022-07-25T07:55:03.345Z,29.80
2022-07-25T07:57:08.160Z,30.00
2022-07-25T07:59:11.137Z,30.00
2022-07-25T08:01:13.881Z,30.10
2022-07-25T08:03:18.731Z,30.40
2022-07-25T08:05:23.496Z,30.90
2022-07-25T08:07:26.237Z,30.90
2022-07-25T08:09:29.467Z,30.90
2022-07-25T08:11:32.201Z,30.90
2022-07-25T08:13:38.021Z,31.30
2022-07-25T08:15:40.891Z,31.60
2022-07-25T08:17:43.707Z,31.60
2022-07-25T08:19:46.446Z,31.80
2022-07-25T08:21:49.188Z,32.10
2022-07-25T08:23:51.915Z,31.70
2022-07-25T08:25:54.906Z,31.70
2022-07-25T08:27:57.737Z,31.30
2022-07-25T08:30:01.830Z,31.50
2022-07-25T08:32:04.923Z,31.30
2022-07-25T08:34:07.971Z,31.30
2022-07-25T08:36:11.785Z,31.50
2022-07-25T08:38:14.543Z,31.80
2022-07-25T08:40:18.174Z,32.00
2022-07-25T08:42:21.191Z,32.30
2022-07-25T08:44:24.262Z,32.40
2022-07-25T08:46:30.145Z,32.20
2022-07-25T08:48:33.223Z,32.20
2022-07-25T08:50:36.172Z,32.10
2022-07-25T08:52:39.232Z,32.10
2022-07-25T08:54:42.002Z,32.10
2022-07-25T08:56:44.735Z,32.10
2022-07-25T08:58:47.477Z,32.00
2022-07-25T09:00:50.222Z,31.90
2022-07-25T09:02:54.614Z,31.90
2022-07-25T09:04:58.478Z,32.10
2022-07-25T09:07:05.003Z,32.40
2022-07-25T09:09:10.727Z,32.60
2022-07-25T09:11:13.480Z,32.80
2022-07-25T09:13:16.292Z,33.00
2022-07-25T09:15:24.866Z,33.10
2022-07-25T09:17:28.796Z,33.50
2022-07-25T09:19:33.763Z,33.50
2022-07-25T09:21:36.545Z,33.90
2022-07-25T09:23:39.887Z,34.30
2022-07-25T09:25:42.801Z,34.40
2022-07-25T09:27:45.532Z,34.60
2022-07-25T09:29:48.259Z,34.90
2022-07-25T09:31:51.246Z,35.10
2022-07-25T09:33:56.286Z,35.30
2022-07-25T09:36:00.365Z,35.10
2022-07-25T09:38:10.867Z,35.10
2022-07-25T09:40:14.707Z,35.10
2022-07-25T09:42:18.656Z,35.10
2022-07-25T09:44:23.157Z,35.00
2022-07-25T09:46:30.543Z,34.60
2022-07-25T09:48:33.558Z,34.70
2022-07-25T09:50:36.326Z,34.70
2022-07-25T09:52:40.412Z,35.10
2022-07-25T09:54:43.180Z,35.00
2022-07-25T09:56:45.914Z,35.30
2022-07-25T09:58:48.906Z,35.10
2022-07-25T10:00:51.828Z,35.20
2022-07-25T10:03:02.574Z,35.20
2022-07-25T10:05:11.111Z,34.80
2022-07-25T10:07:15.102Z,34.80
2022-07-25T10:09:19.162Z,34.90
2022-07-25T10:11:22.895Z,34.80
2022-07-25T10:13:32.311Z,35.20
2022-07-25T10:15:48.750Z,34.60
2022-07-25T10:17:52.161Z,35.00
2022-07-25T10:19:58.675Z,35.00
2022-07-25T10:22:02.854Z,35.10
2022-07-25T10:24:07.361Z,34.90
2022-07-25T10:26:13.479Z,35.00
2022-07-25T10:28:19.047Z,34.90
2022-07-25T10:30:23.245Z,34.80
2022-07-25T10:32:27.030Z,34.70
2022-07-25T10:34:30.561Z,35.00
2022-07-25T10:36:43.076Z,35.20
2022-07-25T10:38:46.551Z,35.20
2022-07-25T10:40:49.331Z,35.10
2022-07-25T10:42:57.200Z,35.60
2022-07-25T10:45:05.432Z,35.80
2022-07-25T10:47:10.238Z,36.10
2022-07-25T10:49:18.939Z,36.00
2022-07-25T10:51:27.538Z,36.80
2022-07-25T10:53:35.026Z,36.90
2022-07-25T10:55:38.117Z,37.10
2022-07-25T10:57:55.092Z,36.20
2022-07-25T11:00:08.593Z,35.90
2022-07-25T11:02:16.321Z,35.60
2022-07-25T11:04:19.194Z,35.30
2022-07-25T11:06:31.343Z,34.90
2022-07-25T11:08:34.333Z,34.60
2022-07-25T11:10:37.148Z,34.30
2022-07-25T11:12:39.918Z,33.90
2022-07-25T11:14:43.243Z,33.60
2022-07-25T11:16:48.710Z,33.30
2022-07-25T11:18:51.568Z,33.10
2022-07-25T11:21:04.340Z,33.20
2022-07-25T11:23:09.148Z,33.20
2022-07-25T11:25:12.780Z,33.30
2022-07-25T11:27:21.911Z,33.40
2022-07-25T11:29:27.032Z,33.40
2022-07-25T11:31:29.859Z,34.30
2022-07-25T11:33:38.429Z,35.10
2022-07-25T11:35:41.799Z,35.30
2022-07-25T11:37:48.941Z,35.70
2022-07-25T11:39:52.968Z,36.10
2022-07-25T11:42:02.835Z,36.90
2022-07-25T11:44:06.478Z,36.90
2022-07-25T11:46:09.428Z,36.50
2022-07-25T11:48:13.436Z,36.30
2022-07-25T11:50:17.572Z,36.60
2022-07-25T11:52:21.958Z,37.00
2022-07-25T11:54:24.695Z,37.20
2022-07-25T11:56:43.730Z,37.60
2022-07-25T11:58:57.409Z,37.50
2022-07-25T12:01:00.141Z,37.30
2022-07-25T12:03:07.670Z,36.70
2022-07-25T12:05:11.568Z,36.50
2022-07-25T12:07:16.089Z,36.40
2022-07-25T12:09:19.865Z,36.10
2022-07-25T12:11:24.465Z,35.70
2022-07-25T12:13:28.127Z,35.40
2022-07-25T12:15:31.771Z,35.40
2022-07-25T12:17:34.526Z,35.10
2022-07-25T12:19:37.237Z,34.90
2022-07-25T12:21:39.978Z,34.60
2022-07-25T12:23:44.065Z,34.30
2022-07-25T12:25:47.222Z,34.20
2022-07-25T12:27:50.089Z,34.10
2022-07-25T12:29:52.847Z,33.90
2022-07-25T12:31:55.590Z,33.70
2022-07-25T12:33:59.257Z,33.40
2022-07-25T12:36:06.612Z,33.30
2022-07-25T12:38:11.237Z,33.00
2022-07-25T12:40:15.443Z,32.80
2022-07-25T12:42:18.215Z,32.50
2022-07-25T12:44:20.943Z,32.40
2022-07-25T12:46:23.707Z,32.30
2022-07-25T12:48:26.563Z,32.20
2022-07-25T12:50:29.393Z,32.20
2022-07-25T12:52:32.171Z,32.30
2022-07-25T12:54:34.915Z,32.40
2022-07-25T12:56:38.967Z,32.40
2022-07-25T12:58:41.716Z,32.30
2022-07-25T13:00:44.590Z,32.20
2022-07-25T13:02:47.667Z,32.10
2022-07-25T13:04:50.483Z,32.00
2022-07-25T13:06:53.227Z,32.00
2022-07-25T13:08:56.302Z,31.90
2022-07-25T13:10:59.031Z,31.90
2022-07-25T13:13:03.702Z,31.80
2022-07-25T13:15:07.443Z,32.00
2022-07-25T13:17:10.255Z,32.20
2022-07-25T13:19:13.046Z,32.50
2022-07-25T13:21:15.794Z,33.10
2022-07-25T13:23:20.821Z,33.70
2022-07-25T13:25:23.709Z,34.30
2022-07-25T13:27:26.441Z,34.50
2022-07-25T13:29:30.514Z,34.90
2022-07-25T13:31:33.391Z,34.50
2022-07-25T13:33:37.222Z,34.50
2022-07-25T13:35:40.215Z,34.80
2022-07-25T13:37:42.996Z,35.20
2022-07-25T13:39:45.757Z,35.10
2022-07-25T13:41:48.689Z,35.40
2022-07-25T13:43:51.457Z,36.00
2022-07-25T13:45:55.586Z,35.90
2022-07-25T13:48:26.756Z,36.00
2022-07-25T13:50:21.274Z,36.10
2022-07-25T13:52:24.006Z,36.40
2022-07-25T13:54:26.767Z,36.60
2022-07-25T13:56:29.520Z,36.70
2022-07-25T13:58:32.568Z,36.50
2022-07-25T14:00:35.339Z,36.00
2022-07-25T14:02:39.471Z,35.80
2022-07-25T14:04:42.286Z,35.10
2022-07-25T14:06:45.038Z,35.50
2022-07-25T14:08:47.866Z,35.60
2022-07-25T14:10:50.612Z,35.10
2022-07-25T14:12:53.390Z,34.90
2022-07-25T14:14:56.347Z,34.60
2022-07-25T14:16:59.230Z,34.50
2022-07-25T14:19:03.520Z,34.90
2022-07-25T14:21:06.733Z,35.10
2022-07-25T14:23:09.612Z,34.80
2022-07-25T14:25:12.586Z,34.60
2022-07-25T14:27:15.337Z,34.20
2022-07-25T14:29:18.222Z,33.70
2022-07-25T14:31:21.338Z,33.40
2022-07-25T14:33:24.183Z,33.40
2022-07-25T14:35:32.320Z,33.30
2022-07-25T14:37:35.667Z,33.10
2022-07-25T14:39:38.432Z,33.60
2022-07-25T14:41:42.590Z,33.90
2022-07-25T14:43:45.647Z,33.80
2022-07-25T14:45:48.406Z,34.10
2022-07-25T14:47:51.198Z,34.10
2022-07-25T14:49:53.958Z,34.10
2022-07-25T14:51:58.039Z,33.60
2022-07-25T14:54:00.785Z,33.90
2022-07-25T14:56:03.701Z,34.10
2022-07-25T14:58:06.456Z,33.80
2022-07-25T15:00:10.930Z,33.60
2022-07-25T15:02:13.948Z,33.40
2022-07-25T15:04:19.720Z,33.40
2022-07-25T15:06:27.387Z,33.30
2022-07-25T15:08:33.187Z,33.00
2022-07-25T15:10:35.965Z,33.00
2022-07-25T15:12:38.715Z,32.90
2022-07-25T15:14:41.629Z,32.70
2022-07-25T15:16:44.508Z,32.60
2022-07-25T15:19:14.567Z,32.70
2022-07-25T15:21:10.070Z,32.60
2022-07-25T15:23:12.808Z,32.50
2022-07-25T15:25:58.059Z,32.20
2022-07-25T15:27:39.974Z,32.20
2022-07-25T15:29:42.721Z,32.00
2022-07-25T15:31:45.525Z,31.50
2022-07-25T15:33:48.288Z,31.50
2022-07-25T15:35:51.059Z,31.70
2022-07-25T15:37:53.802Z,31.90
2022-07-25T15:39:56.576Z,31.60
2022-07-25T15:42:00.668Z,31.30
2022-07-25T15:44:03.424Z,31.20
2022-07-25T15:46:06.507Z,31.10
2022-07-25T15:48:10.216Z,30.70
2022-07-25T15:50:13.048Z,30.60
2022-07-25T15:52:15.805Z,30.60
2022-07-25T15:54:18.551Z,30.70
2022-07-25T15:56:21.309Z,31.00
2022-07-25T15:58:26.784Z,31.30
2022-07-25T16:00:29.999Z,31.30
2022-07-25T16:02:32.854Z,31.20
2022-07-25T16:04:35.608Z,31.00
2022-07-25T16:06:38.678Z,30.80
2022-07-25T16:08:41.770Z,30.50
2022-07-25T16:10:44.526Z,30.30
2022-07-25T16:12:47.255Z,30.30
2022-07-25T16:14:51.419Z,30.30
2022-07-25T16:16:56.899Z,30.30
2022-07-25T16:18:59.634Z,30.30
2022-07-25T16:21:03.133Z,30.20
2022-07-25T16:23:05.862Z,30.00
2022-07-25T16:25:09.389Z,29.60
2022-07-25T16:27:12.138Z,29.50
2022-07-25T16:29:16.317Z,29.30
2022-07-25T16:31:20.491Z,29.10
2022-07-25T16:33:23.278Z,29.00
2022-07-25T16:35:26.238Z,29.00
2022-07-25T16:37:28.984Z,28.80
2022-07-25T16:39:31.789Z,28.80
2022-07-25T16:41:34.607Z,28.70
2022-07-25T16:43:37.366Z,28.80
2022-07-25T16:45:42.129Z,28.80
2022-07-25T16:47:46.305Z,28.70
2022-07-25T16:49:49.049Z,28.90
2022-07-25T16:51:51.817Z,28.80
2022-07-25T16:53:54.655Z,28.90
2022-07-25T16:55:57.468Z,29.00
2022-07-25T16:58:00.325Z,29.40
2022-07-25T17:00:04.465Z,29.50
2022-07-25T17:02:07.327Z,29.80
2022-07-25T17:04:11.438Z,29.80
2022-07-25T17:06:14.871Z,29.60
2022-07-25T17:08:17.855Z,29.70
2022-07-25T17:10:20.927Z,29.50
2022-07-25T17:12:24.084Z,29.30
2022-07-25T17:14:30.216Z,29.00
2022-07-25T17:16:33.325Z,28.80
2022-07-25T17:18:36.645Z,28.70
2022-07-25T17:20:40.750Z,28.40
2022-07-25T17:22:43.489Z,28.30
2022-07-25T17:24:46.222Z,28.20
2022-07-25T17:26:48.978Z,28.10
2022-07-25T17:28:52.008Z,27.90
2022-07-25T17:30:54.809Z,27.80
2022-07-25T17:32:58.555Z,27.70
2022-07-25T17:35:01.290Z,27.70
2022-07-25T17:37:06.234Z,27.50
2022-07-25T17:39:09.426Z,27.30
2022-07-25T17:41:12.374Z,27.20
2022-07-25T17:43:15.110Z,27.10
2022-07-25T17:45:17.899Z,27.00
2022-07-25T17:47:21.034Z,27.00
2022-07-25T17:49:25.975Z,27.00
2022-07-25T17:51:28.811Z,26.90
2022-07-25T17:53:32.965Z,26.90
2022-07-25T17:55:38.889Z,26.90
2022-07-25T17:57:42.860Z,26.80
2022-07-25T17:59:45.605Z,26.80
2022-07-25T18:01:48.422Z,26.70
2022-07-25T18:03:51.194Z,26.70
2022-07-25T18:05:53.957Z,26.60
2022-07-25T18:07:56.698Z,26.60
2022-07-25T18:10:01.947Z,26.60
2022-07-25T18:12:04.998Z,26.50
2022-07-25T18:14:07.889Z,26.60
2022-07-25T18:16:10.949Z,26.40
2022-07-25T18:18:19.892Z,26.40
2022-07-25T18:20:23.222Z,26.40
2022-07-25T18:22:25.976Z,26.30
2022-07-25T18:24:29.746Z,26.10
2022-07-25T18:26:34.266Z,26.00
2022-07-25T18:28:37.379Z,26.00
2022-07-25T18:30:40.189Z,25.90
2022-07-25T18:32:43.085Z,25.80
2022-07-25T18:34:45.829Z,25.70
2022-07-25T18:36:48.584Z,25.70
2022-07-25T18:38:53.718Z,25.70
2022-07-25T18:41:18.908Z,25.60
2022-07-25T18:43:20.529Z,25.70
2022-07-25T18:45:23.382Z,25.50
2022-07-25T18:47:29.936Z,25.60
2022-07-25T18:49:34.970Z,25.70
2022-07-25T18:51:37.721Z,25.60
2022-07-25T18:53:42.822Z,25.50
2022-07-25T18:55:48.843Z,25.50
2022-07-25T18:57:51.586Z,25.40
2022-07-25T18:59:58.328Z,25.40
2022-07-25T19:02:05.361Z,25.30
2022-07-25T19:04:08.430Z,25.30
2022-07-25T19:06:11.706Z,25.20
2022-07-25T19:08:14.443Z,25.10
2022-07-25T19:10:17.266Z,25.00
2022-07-25T19:12:20.028Z,25.00
2022-07-25T19:14:23.993Z,24.90
2022-07-25T19:16:28.195Z,24.90
2022-07-25T19:18:30.979Z,24.90
2022-07-25T19:20:34.126Z,24.80
2022-07-25T19:22:36.907Z,24.90
2022-07-25T19:24:39.680Z,24.70
2022-07-25T19:26:42.698Z,24.70
2022-07-25T19:28:45.424Z,24.60
2022-07-25T19:30:49.940Z,24.50
2022-07-25T19:32:54.118Z,24.50
2022-07-25T19:34:56.850Z,24.40
2022-07-25T19:37:00.039Z,24.30
2022-07-25T19:39:03.313Z,24.40
2022-07-25T19:41:06.270Z,24.30
2022-07-25T19:43:09.010Z,24.30
2022-07-25T19:45:12.227Z,24.30
2022-07-25T19:47:14.990Z,24.20
2022-07-25T19:49:19.087Z,24.10
2022-07-25T19:51:21.924Z,24.10
2022-07-25T19:53:28.602Z,24.10
2022-07-25T19:55:31.596Z,24.10
2022-07-25T19:57:34.369Z,24.10
2022-07-25T19:59:37.151Z,24.10
2022-07-25T20:01:39.944Z,24.00
2022-07-25T20:03:42.765Z,24.00
2022-07-25T20:05:46.837Z,23.90
2022-07-25T20:07:49.610Z,24.00
2022-07-25T20:09:52.368Z,24.00
2022-07-25T20:11:56.108Z,23.90
2022-07-25T20:13:58.840Z,24.00
2022-07-25T20:16:02.150Z,23.90
2022-07-25T20:18:04.919Z,23.90
2022-07-25T20:20:08.643Z,23.80
2022-07-25T20:22:12.743Z,23.80
2022-07-25T20:24:20.918Z,23.80
2022-07-25T20:26:24.183Z,23.80
2022-07-25T20:28:26.928Z,23.60
2022-07-25T20:30:34.590Z,23.70
2022-07-25T20:32:37.777Z,23.70
2022-07-25T20:34:40.505Z,23.70
2022-07-25T20:36:43.280Z,23.60
2022-07-25T20:38:47.345Z,23.60
2022-07-25T20:40:51.230Z,23.50
2022-07-25T20:42:53.988Z,23.50
2022-07-25T20:44:57.323Z,23.40
2022-07-25T20:47:00.090Z,23.40
2022-07-25T20:49:02.873Z,23.30
2022-07-25T20:51:05.814Z,23.30
2022-07-25T20:53:08.903Z,23.20
2022-07-25T20:55:12.969Z,23.20
2022-07-25T20:57:15.724Z,23.10
2022-07-25T20:59:18.466Z,23.10
2022-07-25T21:01:21.307Z,23.00
2022-07-25T21:03:24.118Z,23.00
2022-07-25T21:05:26.982Z,22.90
2022-07-25T21:07:29.731Z,22.90
2022-07-25T21:09:32.919Z,22.80
2022-07-25T21:11:37.287Z,22.80
2022-07-25T21:13:40.023Z,22.70
2022-07-25T21:15:43.040Z,22.70
2022-07-25T21:17:45.801Z,22.60
2022-07-25T21:19:48.604Z,22.60
2022-07-25T21:21:51.419Z,22.60
2022-07-25T21:23:54.176Z,22.60
2022-07-25T21:25:56.951Z,22.60
2022-07-25T21:28:01.050Z,22.60
2022-07-25T21:30:04.596Z,22.60
2022-07-25T21:32:07.938Z,22.60
2022-07-25T21:34:10.720Z,22.60
2022-07-25T21:36:13.441Z,22.60
2022-07-25T21:38:26.018Z,22.50
2022-07-25T21:40:30.437Z,22.50
2022-07-25T21:42:33.202Z,22.50
2022-07-25T21:44:37.301Z,22.50
2022-07-25T21:46:40.040Z,22.50
2022-07-25T21:49:00.494Z,22.50
2022-07-25T21:51:03.254Z,22.50
2022-07-25T21:53:11.933Z,22.50
2022-07-25T21:55:14.665Z,22.40
2022-07-25T21:57:17.433Z,22.40
2022-07-25T21:59:20.171Z,22.40
2022-07-25T22:01:24.323Z,22.40
2022-07-25T22:03:27.136Z,22.30
2022-07-25T22:05:29.967Z,22.30
2022-07-25T22:07:32.720Z,22.30
2022-07-25T22:09:35.460Z,22.30
2022-07-25T22:11:43.007Z,22.30
2022-07-25T22:13:49.138Z,22.30
2022-07-25T22:15:51.905Z,22.30
2022-07-25T22:17:56.044Z,22.20
2022-07-25T22:19:58.778Z,22.20
2022-07-25T22:22:01.540Z,22.10
2022-07-25T22:24:04.442Z,22.00
2022-07-25T22:26:07.210Z,22.00
2022-07-25T22:28:14.258Z,22.00
2022-07-25T22:30:19.458Z,21.90
2022-07-25T22:32:22.516Z,21.80
2022-07-25T22:34:26.615Z,21.70
2022-07-25T22:36:29.356Z,21.70
2022-07-25T22:38:32.116Z,21.60
2022-07-25T22:40:34.863Z,21.50
2022-07-25T22:42:37.629Z,21.50
2022-07-25T22:44:40.362Z,21.40
2022-07-25T22:46:43.438Z,21.30
2022-07-25T22:48:46.219Z,21.30
2022-07-25T22:50:50.352Z,21.20
2022-07-25T22:52:53.102Z,21.20
2022-07-25T22:54:55.830Z,21.20
2022-07-25T22:56:58.554Z,21.20
2022-07-25T22:59:01.336Z,21.20
2022-07-25T23:01:04.066Z,21.20
2022-07-25T23:03:07.001Z,21.20
2022-07-25T23:05:10.507Z,21.20
2022-07-25T23:07:14.619Z,21.30
2022-07-25T23:09:17.373Z,21.30
2022-07-25T23:11:20.110Z,21.30
2022-07-25T23:13:22.863Z,21.30
2022-07-25T23:15:26.723Z,21.20
2022-07-25T23:17:48.331Z,21.20
2022-07-25T23:19:51.989Z,21.20
2022-07-25T23:21:54.735Z,21.20
2022-07-25T23:23:59.986Z,21.20
2022-07-25T23:26:02.773Z,21.20
2022-07-25T23:28:05.914Z,21.20
2022-07-25T23:30:09.640Z,21.30
2022-07-25T23:32:12.405Z,21.30
2022-07-25T23:34:15.135Z,21.30
2022-07-25T23:36:17.887Z,21.30
2022-07-25T23:38:20.625Z,21.30
2022-07-25T23:40:24.710Z,21.30
2022-07-25T23:42:27.805Z,21.30
2022-07-25T23:44:30.938Z,21.30
2022-07-25T23:46:33.772Z,21.30
2022-07-25T23:48:38.171Z,21.30
2022-07-25T23:50:40.962Z,21.30
2022-07-25T23:52:43.750Z,21.30
2022-07-25T23:54:46.519Z,21.30
2022-07-25T23:56:51.567Z,21.30
2022-07-25T23:58:54.298Z,21.20
